Time;durP1;ratioP1;P1;durP2;ratioP2;P2;SDS_P1;SDS_P2;PMS_P1;PMS_P2;Temp;Humidity;BMP_temperature;BMP_pressure;BME280_temperature;BME280_humidity;BME280_pressure;Samples;Min_cycle;Max_cycle;Signal;HPM_P1;HPM_P2
2023/12/29 00:03:21;;;;;;;3.37;2.77;;;;;;;;;;21078019;28;20233;-67
2023/12/29 00:13:24;;;;;;;4.30;3.17;;;;;;;;;;21077361;28;20240;-68
2023/12/29 00:23:26;;;;;;;5.37;3.20;;;;;;;;;;21077043;28;20273;-72
2023/12/29 00:33:28;;;;;;;3.23;2.80;;;;;;;;;;21084237;28;20654;-72
2023/12/29 00:43:31;;;;;;;3.83;2.80;;;;;;;;;;21092301;28;20680;-65
2023/12/29 00:53:35;;;;;;;3.87;2.93;;;11.50;99.90;;;;;;21091263;28;20289;-69
2023/12/29 01:03:37;;;;;;;4.17;2.67;;;;;;;;;;21090722;28;20312;-68
2023/12/29 01:13:39;;;;;;;4.97;3.43;;;;;;;;;;21089689;28;20727;-68
2023/12/29 01:23:41;;;;;;;4.33;3.00;;;;;;;;;;21088998;28;20237;-69
2023/12/29 01:33:43;;;;;;;3.63;3.00;;;;;;;;;;21085158;28;20306;-68
2023/12/29 01:44:17;;;;;;;4.93;3.00;;;11.30;99.90;;;;;;21002434;28;20278;-67
2023/12/29 01:54:21;;;;;;;3.60;2.77;;;11.30;99.90;;;;;;21001676;28;20269;-70
2023/12/29 02:04:25;;;;;;;5.17;2.97;;;11.30;99.90;;;;;;21001937;28;20234;-70
2023/12/29 02:19:44;;;;;;;4.80;2.70;;;11.20;99.90;;;;;;20984937;28;20925;-68
2023/12/29 02:30:01;;;;;;;3.20;2.53;;;11.20;99.90;;;;;;20983598;28;20693;-69
2023/12/29 02:40:04;;;;;;;3.70;3.13;;;10.50;99.70;;;;;;20955365;28;20215;-65
2023/12/29 02:50:06;;;;;;;4.40;3.60;;;;;;;;;;20918222;28;20322;-66
2023/12/29 03:00:08;;;;;;;6.13;4.10;;;;;;;;;;20927397;28;20212;-66
2023/12/29 03:10:10;;;;;;;4.40;3.80;;;;;;;;;;20905053;28;20239;-66
2023/12/29 03:20:13;;;;;;;6.43;3.67;;;;;;;;;;20909261;28;20216;-68
2023/12/29 03:30:15;;;;;;;5.50;3.63;;;;;;;;;;20850024;28;20257;-68
2023/12/29 03:40:17;;;;;;;6.07;3.70;;;;;;;;;;20875824;28;20242;-66
2023/12/29 03:50:20;;;;;;;3.60;3.20;;;;;;;;;;20839772;28;20264;-66
2023/12/29 04:00:22;;;;;;;3.70;3.30;;;;;;;;;;20842025;28;20208;-68
2023/12/29 04:10:24;;;;;;;5.10;3.00;;;;;;;;;;20838179;28;20641;-67
2023/12/29 04:20:26;;;;;;;3.40;2.80;;;;;;;;;;20865241;28;20264;-69
2023/12/29 04:30:28;;;;;;;6.27;3.20;;;;;;;;;;20908338;28;20242;-66
2023/12/29 04:40:30;;;;;;;5.13;2.50;;;;;;;;;;20917322;28;20210;-66
2023/12/29 04:50:32;;;;;;;4.67;2.70;;;;;;;;;;20917428;28;20731;-68
2023/12/29 05:00:35;;;;;;;3.83;2.50;;;;;;;;;;20917066;28;20242;-68
2023/12/29 05:10:38;;;;;;;3.43;2.43;;;;;;;;;;20915606;28;20248;-66
2023/12/29 05:20:40;;;;;;;4.67;3.50;;;;;;;;;;20915346;28;20214;-66
2023/12/29 05:30:42;;;;;;;5.47;3.57;;;;;;;;;;20914845;28;20231;-67
2023/12/29 05:40:44;;;;;;;3.83;2.60;;;;;;;;;;20913936;28;20261;-65
2023/12/29 05:50:46;;;;;;;4.03;3.10;;;;;;;;;;20912858;28;20286;-70
2023/12/29 06:00:48;;;;;;;8.50;3.40;;;;;;;;;;20913282;28;20212;-69
2023/12/29 06:10:51;;;;;;;5.93;4.37;;;;;;;;;;20911994;28;20664;-69
2023/12/29 06:28:47;;;;;;;6.80;3.87;;;;;;;;;;21068222;28;21117;-70
2023/12/29 06:38:51;;;;;;;3.57;2.90;;;;;;;;;;21067105;28;20293;-72
2023/12/29 06:48:53;;;;;;;4.37;3.00;;;;;;;;;;21066940;28;20663;-72
2023/12/29 06:58:56;;;;;;;4.10;3.30;;;;;;;;;;21065446;28;20217;-70
2023/12/29 07:08:59;;;;;;;4.50;3.30;;;;;;;;;;21064697;28;20213;-72
2023/12/29 07:19:01;;;;;;;5.20;3.17;;;;;;;;;;21064104;28;20205;-73
2023/12/29 07:29:04;;;;;;;5.47;3.10;;;;;;;;;;21063273;28;20660;-72
2023/12/29 07:39:06;;;;;;;4.03;2.73;;;;;;;;;;21012400;28;20244;-68
2023/12/29 07:49:08;;;;;;;3.00;2.57;;;;;;;;;;21006369;28;20215;-70
2023/12/29 07:59:10;;;;;;;3.17;2.50;;;;;;;;;;21005080;28;20207;-67
2023/12/29 08:09:12;;;;;;;2.77;2.27;;;;;;;;;;21004588;28;20243;-68
2023/12/29 08:19:16;;;;;;;3.87;2.50;;;;;;;;;;21003619;28;20593;-71
2023/12/29 08:29:19;;;;;;;2.33;2.10;;;;;;;;;;20988358;28;20225;-71
2023/12/29 08:39:21;;;;;;;2.73;2.00;;;;;;;;;;20951487;28;20660;-75
2023/12/29 08:56:59;;;;;;;3.67;2.10;;;;;;;;;;20984208;28;20933;-70
2023/12/29 09:07:01;;;;;;;2.37;2.10;;;;;;;;;;20983446;28;20231;-73
2023/12/29 09:17:05;;;;;;;2.33;2.03;;;;;;;;;;20983021;28;20220;-70
2023/12/29 09:27:07;;;;;;;3.40;1.93;;;;;;;;;;20982836;28;20255;-70
2023/12/29 09:37:09;;;;;;;3.20;1.80;;;;;;;;;;20980914;28;20207;-70
2023/12/29 09:47:13;;;;;;;3.80;2.03;;;11.60;96.50;;;;;;20935047;28;20216;-72
2023/12/29 09:57:15;;;;;;;2.70;2.10;;;;;;;;;;20894361;28;20214;-74
2023/12/29 10:07:26;;;;;;;2.50;1.90;;;11.80;96.10;;;;;;20847300;28;20212;-72
2023/12/29 10:18:07;;;;;;;4.43;1.83;;;12.00;95.80;;;;;;20840869;28;20235;-71
2023/12/29 10:28:10;;;;;;;1.90;1.70;;;;;;;;;;20839790;28;20327;-69
2023/12/29 10:38:12;;;;;;;2.57;2.03;;;12.30;95.50;;;;;;20838998;28;20209;-70
2023/12/29 10:48:24;;;;;;;3.77;1.90;;;12.80;95.50;;;;;;20838241;28;20239;-72
2023/12/29 10:58:28;;;;;;;2.40;2.00;;;;;;;;;;20837535;28;20237;-70
2023/12/29 11:08:35;;;;;;;3.10;1.90;;;12.30;95.10;;;;;;20836512;28;20255;-71
2023/12/29 11:18:38;;;;;;;1.80;1.60;;;12.20;94.80;;;;;;20835071;28;20213;-66
2023/12/29 11:28:41;;;;;;;3.30;1.80;;;10.60;93.80;;;;;;20834829;28;20295;-73
2023/12/29 11:38:52;;;;;;;1.80;1.40;;;12.10;94.50;;;;;;20834164;28;20207;-69
2023/12/29 11:48:56;;;;;;;1.83;1.30;;;12.10;93.80;;;;;;20833598;28;20604;-65
2023/12/29 11:59:12;;;;;;;1.77;1.20;;;12.20;93.40;;;;;;20832763;28;20295;-69
2023/12/29 12:09:24;;;;;;;5.80;1.87;;;12.30;93.00;;;;;;20831946;28;20259;-71
2023/12/29 12:19:29;;;;;;;3.17;1.77;;;;;;;;;;20831124;28;20644;-70
2023/12/29 12:29:31;;;;;;;2.00;1.50;;;;;;;;;;20829539;28;20667;-70
2023/12/29 12:39:40;;;;;;;2.30;1.80;;;12.50;93.10;;;;;;20854757;28;20207;-69
2023/12/29 12:49:43;;;;;;;2.47;1.70;;;;;;;;;;20837633;28;20334;-69
2023/12/29 12:59:45;;;;;;;3.17;1.60;;;;;;;;;;20829686;28;20672;-70
2023/12/29 13:09:50;;;;;;;2.30;1.70;;;12.50;92.70;;;;;;20828440;28;20766;-70
2023/12/29 13:20:01;;;;;;;3.00;1.37;;;12.50;92.40;;;;;;20827774;28;20205;-68
2023/12/29 13:30:03;;;;;;;1.80;1.47;;;;;;;;;;20827864;28;20233;-75
2023/12/29 13:40:22;;;;;;;6.43;3.23;;;12.60;91.80;;;;;;20837338;28;20293;-72
2023/12/29 13:50:25;;;;;;;2.40;1.30;;;;;;;;;;20841331;28;20244;-68
2023/12/29 14:00:28;;;;;;;3.30;1.50;;;;;;;;;;20849532;28;20296;-68
2023/12/29 14:14:27;;;;;;;1.60;1.20;;;;;;;;;;20946118;28;20573;-64
2023/12/29 14:24:29;;;;;;;1.63;1.20;;;;;;;;;;20933681;28;20717;-64
2023/12/29 14:34:31;;;;;;;2.33;1.67;;;;;;;;;;20937860;28;20213;-66
2023/12/29 14:44:34;;;;;;;1.87;1.40;;;;;;;;;;20933238;28;20237;-65
2023/12/29 14:54:38;;;;;;;2.43;1.50;;;11.00;90.50;;;;;;20932573;28;20235;-65
2023/12/29 15:04:40;;;;;;;2.10;1.57;;;;;;;;;;20936935;28;20251;-63
2023/12/29 15:14:42;;;;;;;2.40;2.00;;;;;;;;;;20913742;28;20213;-64
2023/12/29 15:24:44;;;;;;;1.77;1.67;;;;;;;;;;20847201;28;20217;-64
2023/12/29 15:37:00;;;;;;;2.53;1.63;;;;;;;;;;20984575;28;20873;-64
2023/12/29 15:47:02;;;;;;;2.23;2.00;;;;;;;;;;20983984;28;20239;-66
2023/12/29 15:59:10;;;;;;;2.67;2.00;;;;;;;;;;21003876;28;20573;-69
2023/12/29 16:09:12;;;;;;;2.40;1.80;;;;;;;;;;20983541;28;20211;-69
2023/12/29 16:19:14;;;;;;;3.57;1.70;;;;;;;;;;20982745;28;20241;-65
2023/12/29 16:29:17;;;;;;;2.77;2.10;;;;;;;;;;20981092;28;20269;-64
2023/12/29 16:39:20;;;;;;;4.57;2.53;;;;;;;;;;20980913;28;20211;-63
2023/12/29 16:49:22;;;;;;;3.33;1.77;;;;;;;;;;20979608;28;20239;-63
2023/12/29 16:59:24;;;;;;;2.53;1.60;;;;;;;;;;20979481;28;20211;-70
2023/12/29 17:09:26;;;;;;;2.40;1.80;;;;;;;;;;20929923;28;20226;-63
2023/12/29 17:19:28;;;;;;;2.50;2.00;;;;;;;;;;20923183;28;20211;-66
2023/12/29 17:29:31;;;;;;;2.20;1.90;;;;;;;;;;20922665;28;20639;-67
2023/12/29 17:39:33;;;;;;;2.03;1.77;;;;;;;;;;20921519;28;20209;-64
2023/12/29 17:49:35;;;;;;;2.30;1.80;;;;;;;;;;20920432;28;20251;-65
2023/12/29 17:59:38;;;;;;;2.47;2.10;;;;;;;;;;20920259;28;20212;-68
2023/12/29 18:09:40;;;;;;;9.20;4.23;;;;;;;;;;20920419;28;20227;-66
2023/12/29 18:19:42;;;;;;;3.00;1.93;;;;;;;;;;20917463;28;20243;-66
2023/12/29 18:29:45;;;;;;;1.70;1.33;;;;;;;;;;20918041;28;20707;-66
2023/12/29 18:39:47;;;;;;;2.10;1.80;;;;;;;;;;20917173;28;20718;-66
2023/12/29 18:49:50;;;;;;;2.37;1.90;;;;;;;;;;20915530;28;20246;-66
2023/12/29 18:59:53;;;;;;;2.30;1.80;;;;;;;;;;20915741;28;20206;-66
2023/12/29 19:09:55;;;;;;;1.97;1.77;;;;;;;;;;20914496;28;20241;-67
2023/12/29 19:19:57;;;;;;;3.10;2.00;;;;;;;;;;20936822;28;20658;-69
2023/12/29 19:29:59;;;;;;;2.43;1.93;;;11.40;92.90;;;;;;20977453;28;20312;-67
2023/12/29 19:40:01;;;;;;;2.23;1.60;;;;;;;;;;20919005;28;20213;-65
2023/12/29 19:50:04;;;;;;;2.50;1.87;;;11.50;92.30;;;;;;20930504;28;20237;-66
2023/12/29 20:00:07;;;;;;;4.33;1.90;;;;;;;;;;20995336;28;20203;-64
2023/12/29 20:10:09;;;;;;;2.30;1.83;;;;;;;;;;20994357;28;20689;-66
2023/12/29 20:20:12;;;;;;;8.47;3.40;;;;;;;;;;20917420;28;20277;-66
2023/12/29 20:30:16;;;;;;;3.57;1.30;;;;;;;;;;20875660;28;20236;-65
2023/12/29 20:40:18;;;;;;;3.63;1.60;;;;;;;;;;20870452;28;20209;-68
2023/12/29 21:00:11;;;;;;;2.73;1.60;;;11.40;90.60;;;;;;20946396;28;20586;-68
2023/12/29 21:10:13;;;;;;;2.00;1.70;;;;;;;;;;20899048;28;20232;-66
